Terminal Aerodrome Forecast
Issued by NWS Mobile, AL

Home | Current Version | Previous Version | Text Only | Print | Product List | Glossary On
Versions: 1 2 3 4 5 6 7 8 9 10 11 12 13 14 15 16 17 18 19 20 21 22 23 24 25 26 27 28 29 30 31 32 33 34 35
000
FTUS44 KMOB 060537
TAFMOB
TAF
KMOB 060537Z 0606/0706 VRB03KT P6SM FEW100 SCT200
     FM061800 20009KT P6SM VCTS SCT030CB SCT200
     FM070300 VRB03KT P6SM SCT200=

USA.gov is the U.S. government's official web portal to all federal, state and local government web resources and services.